Latest Weather Observations for Tibooburra Airport

IDN60801

Issued at 12:03 pm EST Sunday 2 August 2015 (issued every 30 minutes, with the page automatically refreshed every 10 minutes)

About weather observations | Map of weather stations | Latest weather observations for NSW | Other Formats
Station Details ID: 046126 Name: TIBOOBURRA AIRPORT Lat: -29.44 Lon: 142.06 Height: 176.4 m
Data from the previous 72 hours. | See also: Recent months for locations in New South Wales
Date/Time
EST
Temp
°C
App
Temp
°C
Dew
Point
Rel
Hum
%
Delta-T
°C
Wind Press
QNH
hPa
Press
MSL
hPa
Rain
since 9 am
mm
Dir
 
Spd
km/h
Gust
km/h
Spd
kts
Gust
kts
02/12:00pm 18.3 11.5 6.8 47 5.8 SSW 32 43 17 23 1018.0 1017.9 0.0
02/11:30am 19.7 12.3 3.8 35 7.6 SW 32 37 17 20 1017.8 1017.7 0.0
02/11:00am 20.3 14.3 3.5 33 8.0 SW 24 32 13 17 1017.4 1017.3 0.0
02/10:30am 20.6 15.0 3.3 32 8.3 WSW 22 28 12 15 1017.0 1016.9 0.0
02/10:00am 20.4 15.8 3.6 33 8.1 WSW 17 20 9 11 1016.8 1016.7 0.0
02/09:30am 18.5 14.7 3.9 38 7.0 WNW 13 15 7 8 1016.5 1016.3 0.0
02/09:00am 17.2 13.8 3.8 41 6.3 W 11 13 6 7 1016.4 1016.2 0.0
02/08:30am 15.8 12.6 3.3 43 5.8 WNW 9 13 5 7 1016.3 1016.1 0.0
02/08:00am 16.0 10.7 2.8 41 6.0 W 20 24 11 13 1016.0 1015.9 0.0
02/07:30am 15.9 10.6 3.0 42 5.9 WNW 20 30 11 16 1015.5 1015.4 0.0
02/07:00am 15.8 9.1 1.5 38 6.3 WNW 26 32 14 17 1015.2 1015.1 0.0
02/06:30am 15.2 9.7 2.1 41 5.9 NNW 20 26 11 14 1014.4 1014.3 0.0
02/06:00am 14.6 9.5 2.8 45 5.3 NNW 19 24 10 13 1014.0 1013.9 0.0
02/05:30am 13.8 8.5 3.0 48 4.9 N 20 24 11 13 1013.9 1013.8 0.0
02/05:00am 14.0 8.9 2.9 47 5.0 N 19 22 10 12 1014.0 1013.9 0.0
02/04:30am 13.4 8.7 2.9 49 4.7 N 17 19 9 10 1014.1 1014.0 0.0
02/04:00am 14.9 10.1 2.8 44 5.5 N 17 20 9 11 1014.1 1014.0 0.0
02/03:30am 16.0 10.9 2.8 41 6.0 NNW 19 22 10 12 1014.2 1014.1 0.0
02/03:00am 15.9 10.7 2.7 41 6.0 NNW 19 22 10 12 1014.1 1014.0 0.0
02/02:30am 15.9 10.7 2.7 41 6.0 N 19 24 10 13 1014.3 1014.2 0.0
02/02:00am 15.1 10.3 2.6 43 5.6 N 17 20 9 11 1014.5 1014.4 0.0
02/01:30am 15.1 10.3 2.6 43 5.6 N 17 19 9 10 1014.9 1014.8 0.0
02/01:00am 14.9 10.8 2.1 42 5.7 N 13 15 7 8 1015.2 1015.1 0.0
02/12:30am 16.2 11.8 2.6 40 6.2 N 15 17 8 9 1015.3 1015.2 0.0
02/12:00am 16.1 11.5 1.8 38 6.4 N 15 17 8 9 1015.7 1015.6 0.0
 
Date/Time
EST
Temp
°C
App
Temp
°C
Dew
Point
Rel
Hum
%
Delta-T
°C
Wind Press
QNH
hPa
Press
MSL
hPa
Rain
since 9 am
mm
Dir
 
Spd
km/h
Gust
km/h
Spd
kts
Gust
kts
01/11:30pm 16.9 12.3 1.8 36 6.8 N 15 17 8 9 1015.8 1015.7 0.0
01/11:00pm 17.7 12.8 1.7 34 7.2 N 17 20 9 11 1016.0 1015.9 0.0
01/10:30pm 18.5 13.5 1.5 32 7.7 N 17 20 9 11 1016.0 1015.9 0.0
01/10:00pm 18.6 13.6 1.6 32 7.7 NNW 17 20 9 11 1016.4 1016.2 0.0
01/09:30pm 19.0 14.0 1.5 31 8.0 N 17 19 9 10 1016.4 1016.2 0.0
01/09:00pm 18.5 13.9 1.5 32 7.7 N 15 17 8 9 1016.3 1016.1 0.0
01/08:30pm 18.5 13.9 1.5 32 7.7 N 15 17 8 9 1016.3 1016.1 0.0
01/08:00pm 19.9 15.3 1.8 30 8.3 N 15 17 8 9 1015.9 1015.8 0.0
01/07:30pm 21.1 16.9 1.4 27 9.1 NNW 13 15 7 8 1015.9 1015.8 0.0
01/07:00pm 22.1 17.5 1.7 26 9.6 NNW 15 19 8 10 1015.6 1015.5 0.0
01/06:30pm 23.0 18.5 1.9 25 10.0 NNW 15 17 8 9 1015.5 1015.4 0.0
01/06:00pm 24.3 19.6 1.2 22 10.9 NNW 15 20 8 11 1015.4 1015.3 0.0
01/05:30pm 25.9 19.7 -0.2 18 12.2 NW 22 28 12 15 1015.5 1015.4 0.0
01/05:00pm 26.5 19.5 -0.5 17 12.5 NNW 26 35 14 19 1015.6 1015.5 0.0
01/04:30pm 27.0 19.6 -0.9 16 12.9 NNW 28 41 15 22 1015.6 1015.5 0.0
01/04:00pm 27.5 20.8 -1.4 15 13.3 NW 24 33 13 18 1015.6 1015.5 0.0
01/03:30pm 27.3 19.8 -1.6 15 13.3 NNW 28 39 15 21 1015.7 1015.6 0.0
01/03:00pm 27.1 19.6 -1.7 15 13.2 NNW 28 39 15 21 1015.9 1015.8 0.0
01/02:30pm 27.0 19.1 -1.8 15 13.1 NNW 30 41 16 22 1016.3 1016.1 0.0
01/02:00pm 27.3 20.0 -2.5 14 13.4 NW 26 37 14 20 1016.8 1016.7 0.0
01/01:30pm 26.4 18.8 -2.3 15 12.9 NNW 28 37 15 20 1017.2 1017.1 0.0
01/01:00pm 25.9 17.4 -3.6 14 12.9 NNW 32 43 17 23 1017.8 1017.7 0.0
01/12:30pm 25.5 17.0 -3.0 15 12.6 NNW 32 39 17 21 1018.4 1018.3 0.0
01/12:00pm 24.8 17.6 -1.9 17 11.9 NNW 26 39 14 21 1019.0 1018.9 0.0
01/11:30am 23.5 15.4 -2.9 17 11.5 NNW 30 37 16 20 1019.4 1019.3 0.0
01/11:00am 23.2 15.2 -2.4 18 11.2 NNW 30 39 16 21 1019.7 1019.6 0.0
01/10:30am 21.8 15.0 -2.1 20 10.4 N 24 30 13 16 1019.7 1019.6 0.0
01/10:00am 19.9 13.7 -3.0 21 9.6 N 20 28 11 15 1019.9 1019.8 0.0
01/09:30am 18.4 12.2 -3.1 23 8.9 N 20 28 11 15 1019.7 1019.8 0.0
01/09:00am 16.8 10.5 -3.9 24 8.2 N 20 24 11 13 1019.4 1019.5 0.0
01/08:30am 15.5 9.3 -5.0 24 7.9 N 19 24 10 13 1019.2 1019.3 0.0
01/08:00am 13.7 8.3 -4.5 28 6.9 N 15 20 8 11 1018.9 1019.0 0.0
01/07:30am 11.7 6.6 -4.8 31 6.1 N 13 17 7 9 1018.6 1018.6 0.0
01/07:00am 11.9 6.0 -5.5 29 6.3 N 17 20 9 11 1018.4 1018.4 0.0
01/06:30am 11.9 6.3 -6.0 28 6.5 N 15 17 8 9 1018.3 1018.3 0.0
01/06:00am 12.8 7.2 -6.2 26 6.9 N 15 17 8 9 1018.2 1018.2 0.0
01/05:30am 14.1 8.1 -6.7 23 7.6 NNW 17 19 9 10 1018.0 1018.0 0.0
01/05:00am 13.1 7.8 -7.5 23 7.3 NNW 13 15 7 8 1017.9 1017.9 0.0
01/04:30am 14.2 8.1 -7.8 21 7.8 N 17 20 9 11 1018.1 1018.1 0.0
01/04:00am 14.4 7.9 -8.2 20 8.0 N 19 24 10 13 1018.2 1018.2 0.0
01/03:30am 14.6 7.8 -8.7 19 8.2 N 20 24 11 13 1018.5 1018.5 0.0
01/03:00am 15.1 8.0 -8.3 19 8.3 N 22 26 12 14 1018.7 1018.8 0.0
01/02:30am 13.2 6.7 -7.4 23 7.3 N 19 24 10 13 1019.0 1019.1 0.0
01/02:00am 14.2 8.0 -8.4 20 7.9 N 17 20 9 11 1019.2 1019.3 0.0
01/01:30am 15.2 9.0 -8.9 18 8.5 N 17 20 9 11 1019.3 1019.4 0.0
01/01:00am 15.5 9.3 -9.4 17 8.7 N 17 20 9 11 1019.5 1019.6 0.0
01/12:30am 15.3 9.1 -8.8 18 8.5 N 17 20 9 11 1020.0 1020.1 0.0
01/12:00am 15.9 9.7 -9.1 17 8.8 N 17 20 9 11 1020.1 1020.2 0.0
 
Date/Time
EST
Temp
°C
App
Temp
°C
Dew
Point
Rel
Hum
%
Delta-T
°C
Wind Press
QNH
hPa
Press
MSL
hPa
Rain
since 9 am
mm
Dir
 
Spd
km/h
Gust
km/h
Spd
kts
Gust
kts
31/11:30pm 16.3 9.7 -9.5 16 9.1 N 19 20 10 11 1020.3 1020.4 0.0
31/11:00pm 15.9 9.7 -9.1 17 8.8 N 17 20 9 11 1020.3 1020.4 0.0
31/10:30pm 15.8 10.0 -8.4 18 8.7 N 15 17 8 9 1020.3 1020.4 0.0
31/10:00pm 15.9 10.1 -8.4 18 8.7 N 15 17 8 9 1020.6 1020.7 0.0
31/09:30pm 16.4 10.3 -7.9 18 8.9 N 17 20 9 11 1020.4 1020.5 0.0
31/09:00pm 17.3 11.2 -7.9 17 9.3 NNW 17 20 9 11 1020.5 1020.6 0.0
31/08:30pm 17.2 11.9 -7.3 18 9.1 NNW 13 15 7 8 1020.5 1020.6 0.0
31/08:00pm 17.4 12.2 -6.4 19 9.0 NNW 13 15 7 8 1020.4 1020.5 0.0
31/07:30pm 17.8 12.6 -6.1 19 9.2 NNW 13 15 7 8 1020.2 1020.3 0.0
31/07:00pm 18.4 13.3 -5.6 19 9.4 NNW 13 15 7 8 1020.0 1020.1 0.0
31/06:30pm 19.2 14.0 -5.7 18 9.8 NNW 13 15 7 8 1019.7 1019.8 0.0
31/06:00pm 20.4 14.8 -6.2 16 10.5 N 15 20 8 11 1019.4 1019.5 0.0
31/05:30pm 21.9 15.9 -6.8 14 11.4 N 17 22 9 12 1019.4 1019.5 0.0
31/05:00pm 22.8 17.2 -6.1 14 11.7 N 15 20 8 11 1019.2 1019.3 0.0
31/04:30pm 22.9 17.4 -5.1 15 11.6 NNW 15 20 8 11 1019.4 1019.5 0.0
31/04:00pm 22.9 17.5 -4.2 16 11.4 N 15 20 8 11 1019.5 1019.6 0.0
31/03:30pm 23.0 18.5 -3.3 17 11.3 NNE 11 20 6 11 1019.7 1019.8 0.0
31/03:00pm 22.5 18.4 -3.0 18 10.9 NNW 9 19 5 10 1020.1 1020.2 0.0
31/02:30pm 22.2 17.7 -3.2 18 10.8 NNW 11 19 6 10 1020.4 1020.5 0.0
31/02:00pm 21.5 17.4 -3.1 19 10.4 N 9 15 5 8 1020.9 1021.0 0.0
31/01:30pm 21.2 17.1 -3.3 19 10.3 NNW 9 17 5 9 1021.3 1021.4 0.0
31/01:00pm 21.1 16.7 -2.7 20 10.1 NE 11 19 6 10 1021.6 1021.7 0.0
31/12:30pm 20.4 16.3 -3.3 20 9.9 ENE 9 17 5 9 1022.2 1022.2 0.0
31/12:00pm 19.7 15.7 -2.6 22 9.4 ENE 9 17 5 9 1022.7 1022.7 0.0
31/11:30am 19.1 15.1 -2.5 23 9.1 ENE 9 13 5 7 1023.1 1023.1 0.0
31/11:00am 18.0 14.0 -2.3 25 8.4 ESE 9 13 5 7 1023.4 1023.4 0.0
31/10:30am 17.0 13.3 -2.6 26 8.1 SE 7 9 4 5 1023.6 1023.7 0.0
31/10:00am 15.7 13.3 -3.2 27 7.5 CALM 0 6 0 3 1023.8 1023.9 0.0
31/09:30am 14.3 11.9 -3.5 29 7.0 CALM 0 0 0 0 1023.8 1023.9 0.0
31/09:00am 12.7 10.3 -3.5 32 6.2 CALM 0 0 0 0 1023.6 1023.7 0.0
31/08:30am 11.0 8.3 -2.1 40 5.1 NW 2 6 1 3 1023.1 1023.1 0.0
31/08:00am 8.7 5.6 -2.6 45 4.2 E 4 7 2 4 1022.9 1022.9 0.0
31/07:30am 9.8 6.0 -3.8 38 5.0 W 7 9 4 5 1022.5 1022.5 0.0
31/07:00am 8.8 4.2 -3.7 41 4.6 WNW 11 13 6 7 1022.3 1022.3 0.0
31/06:30am 9.6 4.3 -4.0 38 5.0 WNW 15 17 8 9 1022.0 1022.1 0.0
31/06:00am 9.9 4.9 -4.1 37 5.1 WNW 13 13 7 7 1021.7 1021.8 0.0
31/05:30am 9.8 4.8 -4.2 37 5.1 WNW 13 15 7 8 1021.3 1021.4 0.0
31/05:00am 10.2 5.6 -3.8 37 5.2 WNW 11 13 6 7 1021.3 1021.4 0.0
31/04:30am 9.9 6.1 -3.7 38 5.1 WNW 7 7 4 4 1021.5 1021.6 0.0
31/04:00am 9.5 5.3 -3.7 39 4.9 W 9 11 5 6 1021.6 1021.7 0.0
31/03:30am 10.7 5.8 -3.7 36 5.4 WNW 13 15 7 8 1021.6 1021.7 0.0
31/03:00am 10.4 5.5 -3.6 37 5.2 W 13 15 7 8 1021.8 1021.9 0.0
31/02:30am 11.2 6.6 -4.1 34 5.7 W 11 13 6 7 1022.2 1022.2 0.0
31/02:00am 11.4 6.4 -3.9 34 5.7 WNW 13 15 7 8 1022.3 1022.3 0.0
31/01:30am 12.0 7.4 -3.8 33 6.0 WNW 11 13 6 7 1022.7 1022.7 0.0
31/01:00am 12.1 7.5 -3.7 33 6.0 WNW 11 15 6 8 1022.7 1022.7 0.0
31/12:30am 11.5 6.6 -3.8 34 5.8 W 13 15 7 8 1022.7 1022.7 0.0
31/12:00am 13.0 7.3 -4.1 30 6.5 NW 17 19 9 10 1022.6 1022.6 0.0
 
Date/Time
EST
Temp
°C
App
Temp
°C
Dew
Point
Rel
Hum
%
Delta-T
°C
Wind Press
QNH
hPa
Press
MSL
hPa
Rain
since 9 am
mm
Dir
 
Spd
km/h
Gust
km/h
Spd
kts
Gust
kts
30/11:30pm 13.4 8.1 -3.8 30 6.6 NW 15 17 8 9 1022.6 1022.6 0.0
30/11:00pm 12.7 7.4 -4.0 31 6.3 NW 15 17 8 9 1022.7 1022.7 0.0
30/10:30pm 12.1 7.9 -4.1 32 6.1 WNW 9 11 5 6 1022.9 1022.9 0.0
30/10:00pm 13.6 7.9 -4.1 29 6.8 NW 17 19 9 10 1023.0 1023.0 0.0
30/09:30pm 13.6 8.2 -4.1 29 6.8 NW 15 17 8 9 1022.9 1022.9 0.0
30/09:00pm 13.6 8.6 -4.1 29 6.8 WNW 13 15 7 8 1023.1 1023.1 0.0
30/08:30pm 14.4 9.1 -3.9 28 7.1 NW 15 17 8 9 1022.8 1022.8 0.0
30/08:00pm 14.7 9.8 -3.6 28 7.2 NW 13 17 7 9 1022.6 1022.6 0.0
30/07:30pm 14.6 10.4 -3.7 28 7.2 WNW 9 11 5 6 1022.6 1022.6 0.0
30/07:00pm 15.6 11.8 -3.8 26 7.6 W 7 9 4 5 1022.5 1022.5 0.0
30/06:30pm 16.0 11.5 -3.5 26 7.8 WNW 11 11 6 6 1022.3 1022.3 0.0
30/06:00pm 17.2 12.6 -4.1 23 8.5 NW 11 15 6 8 1021.8 1021.9 0.0
30/05:30pm 18.7 13.0 -4.0 21 9.2 WNW 17 20 9 11 1022.0 1022.1 0.0
30/05:00pm 19.5 13.8 -4.0 20 9.6 WNW 17 20 9 11 1021.8 1021.9 0.0
30/04:30pm 19.7 13.5 -3.2 21 9.5 WNW 20 26 11 14 1022.3 1022.3 0.0
30/04:00pm 19.8 13.5 -3.8 20 9.7 WNW 20 30 11 16 1022.3 1022.3 0.0
30/03:30pm 19.7 13.5 -3.2 21 9.5 WNW 20 30 11 16 1022.2 1022.2 0.0
30/03:00pm 19.9 13.8 -2.4 22 9.4 NW 20 32 11 17 1022.6 1022.6 0.0
30/02:30pm 19.6 13.1 -2.7 22 9.4 NW 22 30 12 16 1023.0 1023.0 0.0
30/02:00pm 18.5 12.5 -1.9 25 8.6 NW 20 28 11 15 1023.4 1023.4 0.0
30/01:30pm 18.3 12.4 -0.5 28 8.2 WNW 20 28 11 15 1024.3 1024.4 0.0
30/01:00pm 17.8 11.5 -0.9 28 8.0 NW 22 30 12 16 1024.7 1024.8 0.0
30/12:30pm 17.5 11.9 -0.2 30 7.7 NW 19 28 10 15 1025.3 1025.4 0.0

Other Formats:

Comma delimited format used in spreadsheet applications
http://www.bom.gov.au/fwo/IDN60801/IDN60801.95485.axf

JavaScript Object Notation format (JSON) in row-major order
http://www.bom.gov.au/fwo/IDN60801/IDN60801.95485.json